sensor_id;sensor_type;location;lat;lon;timestamp;temperature;humidity
5808;DHT22;2930;42.678;23.312;2023-07-13T00:00:25;24.10;71.30
5808;DHT22;2930;42.678;23.312;2023-07-13T00:02:51;24.00;71.20
5808;DHT22;2930;42.678;23.312;2023-07-13T00:05:22;23.90;72.90
5808;DHT22;2930;42.678;23.312;2023-07-13T00:07:52;23.70;73.10
5808;DHT22;2930;42.678;23.312;2023-07-13T00:10:18;23.70;71.90
5808;DHT22;2930;42.678;23.312;2023-07-13T00:12:44;23.70;71.70
5808;DHT22;2930;42.678;23.312;2023-07-13T00:15:18;23.70;71.60
5808;DHT22;2930;42.678;23.312;2023-07-13T00:17:49;23.80;71.60
5808;DHT22;2930;42.678;23.312;2023-07-13T00:20:15;23.80;72.00
5808;DHT22;2930;42.678;23.312;2023-07-13T00:22:41;23.80;73.20
5808;DHT22;2930;42.678;23.312;2023-07-13T00:25:08;23.80;72.50
5808;DHT22;2930;42.678;23.312;2023-07-13T00:27:34;23.80;72.80
5808;DHT22;2930;42.678;23.312;2023-07-13T00:30:00;23.80;72.90
5808;DHT22;2930;42.678;23.312;2023-07-13T00:32:25;23.80;73.30
5808;DHT22;2930;42.678;23.312;2023-07-13T00:34:52;23.80;73.60
5808;DHT22;2930;42.678;23.312;2023-07-13T00:37:17;23.70;73.80
5808;DHT22;2930;42.678;23.312;2023-07-13T00:39:43;23.70;74.10
5808;DHT22;2930;42.678;23.312;2023-07-13T00:42:09;23.70;74.30
5808;DHT22;2930;42.678;23.312;2023-07-13T00:44:34;23.70;73.80
5808;DHT22;2930;42.678;23.312;2023-07-13T00:47:00;23.70;73.90
5808;DHT22;2930;42.678;23.312;2023-07-13T00:49:30;23.70;74.50
5808;DHT22;2930;42.678;23.312;2023-07-13T00:52:06;23.60;74.30
5808;DHT22;2930;42.678;23.312;2023-07-13T00:54:39;23.50;74.60
5808;DHT22;2930;42.678;23.312;2023-07-13T00:57:09;23.50;74.90
5808;DHT22;2930;42.678;23.312;2023-07-13T00:59:37;23.40;75.90
5808;DHT22;2930;42.678;23.312;2023-07-13T01:02:04;23.30;75.80
5808;DHT22;2930;42.678;23.312;2023-07-13T01:04:30;23.20;76.00
5808;DHT22;2930;42.678;23.312;2023-07-13T01:06:57;23.20;76.00
5808;DHT22;2930;42.678;23.312;2023-07-13T01:09:23;23.10;75.90
5808;DHT22;2930;42.678;23.312;2023-07-13T01:11:49;23.10;76.80
5808;DHT22;2930;42.678;23.312;2023-07-13T01:14:15;23.00;76.90
5808;DHT22;2930;42.678;23.312;2023-07-13T01:16:44;23.00;77.70
5808;DHT22;2930;42.678;23.312;2023-07-13T01:19:35;22.80;79.30
5808;DHT22;2930;42.678;23.312;2023-07-13T01:22:28;22.70;79.30
5808;DHT22;2930;42.678;23.312;2023-07-13T01:24:54;22.70;78.50
5808;DHT22;2930;42.678;23.312;2023-07-13T01:27:25;22.70;77.10
5808;DHT22;2930;42.678;23.312;2023-07-13T01:29:52;22.70;77.90
5808;DHT22;2930;42.678;23.312;2023-07-13T01:32:22;22.50;78.90
5808;DHT22;2930;42.678;23.312;2023-07-13T01:34:51;22.50;79.60
5808;DHT22;2930;42.678;23.312;2023-07-13T01:37:19;22.40;79.10
5808;DHT22;2930;42.678;23.312;2023-07-13T01:39:45;22.40;79.90
5808;DHT22;2930;42.678;23.312;2023-07-13T01:42:11;22.40;78.30
5808;DHT22;2930;42.678;23.312;2023-07-13T01:44:36;22.50;77.90
5808;DHT22;2930;42.678;23.312;2023-07-13T01:47:02;22.60;77.80
5808;DHT22;2930;42.678;23.312;2023-07-13T01:49:28;22.50;77.90
5808;DHT22;2930;42.678;23.312;2023-07-13T01:51:54;22.50;78.00
5808;DHT22;2930;42.678;23.312;2023-07-13T01:54:19;22.50;77.80
5808;DHT22;2930;42.678;23.312;2023-07-13T01:56:45;22.50;77.80
5808;DHT22;2930;42.678;23.312;2023-07-13T01:59:11;22.50;78.10
5808;DHT22;2930;42.678;23.312;2023-07-13T02:01:36;22.50;78.00
5808;DHT22;2930;42.678;23.312;2023-07-13T02:04:02;22.50;78.00
5808;DHT22;2930;42.678;23.312;2023-07-13T02:06:28;22.50;78.30
5808;DHT22;2930;42.678;23.312;2023-07-13T02:08:54;22.50;78.60
5808;DHT22;2930;42.678;23.312;2023-07-13T02:11:20;22.50;78.50
5808;DHT22;2930;42.678;23.312;2023-07-13T02:13:45;22.50;78.50
5808;DHT22;2930;42.678;23.312;2023-07-13T02:16:11;22.50;78.70
5808;DHT22;2930;42.678;23.312;2023-07-13T02:18:37;22.50;78.60
5808;DHT22;2930;42.678;23.312;2023-07-13T02:21:03;22.40;78.70
5808;DHT22;2930;42.678;23.312;2023-07-13T02:23:29;22.40;78.90
5808;DHT22;2930;42.678;23.312;2023-07-13T02:25:59;22.40;79.60
5808;DHT22;2930;42.678;23.312;2023-07-13T02:28:25;22.40;79.10
5808;DHT22;2930;42.678;23.312;2023-07-13T02:30:51;22.30;80.50
5808;DHT22;2930;42.678;23.312;2023-07-13T02:33:17;22.30;80.10
5808;DHT22;2930;42.678;23.312;2023-07-13T02:35:43;22.30;80.50
5808;DHT22;2930;42.678;23.312;2023-07-13T02:38:08;22.30;80.50
5808;DHT22;2930;42.678;23.312;2023-07-13T02:40:34;22.20;80.70
5808;DHT22;2930;42.678;23.312;2023-07-13T02:43:01;22.20;81.10
5808;DHT22;2930;42.678;23.312;2023-07-13T02:45:27;22.20;81.10
5808;DHT22;2930;42.678;23.312;2023-07-13T02:47:52;22.10;81.40
5808;DHT22;2930;42.678;23.312;2023-07-13T02:50:18;22.10;81.50
5808;DHT22;2930;42.678;23.312;2023-07-13T02:52:44;22.00;81.50
5808;DHT22;2930;42.678;23.312;2023-07-13T02:55:10;22.00;81.80
5808;DHT22;2930;42.678;23.312;2023-07-13T02:57:35;21.90;82.00
5808;DHT22;2930;42.678;23.312;2023-07-13T03:00:02;21.90;81.80
5808;DHT22;2930;42.678;23.312;2023-07-13T03:02:33;21.90;81.80
5808;DHT22;2930;42.678;23.312;2023-07-13T03:04:59;22.00;81.40
5808;DHT22;2930;42.678;23.312;2023-07-13T03:07:24;22.00;81.60
5808;DHT22;2930;42.678;23.312;2023-07-13T03:09:55;22.00;81.90
5808;DHT22;2930;42.678;23.312;2023-07-13T03:12:22;22.00;81.30
5808;DHT22;2930;42.678;23.312;2023-07-13T03:14:47;22.00;81.90
5808;DHT22;2930;42.678;23.312;2023-07-13T03:17:13;22.00;82.10
5808;DHT22;2930;42.678;23.312;2023-07-13T03:19:38;22.00;81.90
5808;DHT22;2930;42.678;23.312;2023-07-13T03:22:04;22.00;82.50
5808;DHT22;2930;42.678;23.312;2023-07-13T03:24:33;22.00;82.40
5808;DHT22;2930;42.678;23.312;2023-07-13T03:26:58;22.00;82.30
5808;DHT22;2930;42.678;23.312;2023-07-13T03:29:24;22.00;82.50
5808;DHT22;2930;42.678;23.312;2023-07-13T03:31:49;22.00;82.40
5808;DHT22;2930;42.678;23.312;2023-07-13T03:34:15;22.00;82.70
5808;DHT22;2930;42.678;23.312;2023-07-13T03:36:41;22.00;83.50
5808;DHT22;2930;42.678;23.312;2023-07-13T03:39:06;22.00;82.80
5808;DHT22;2930;42.678;23.312;2023-07-13T03:41:34;22.00;82.70
5808;DHT22;2930;42.678;23.312;2023-07-13T03:44:00;22.00;83.00
5808;DHT22;2930;42.678;23.312;2023-07-13T03:46:25;22.00;83.00
5808;DHT22;2930;42.678;23.312;2023-07-13T03:48:51;22.00;83.00
5808;DHT22;2930;42.678;23.312;2023-07-13T03:51:18;22.00;83.90
5808;DHT22;2930;42.678;23.312;2023-07-13T03:53:45;21.90;83.30
5808;DHT22;2930;42.678;23.312;2023-07-13T03:56:12;21.90;83.10
5808;DHT22;2930;42.678;23.312;2023-07-13T03:58:40;21.90;83.30
5808;DHT22;2930;42.678;23.312;2023-07-13T04:01:08;21.90;83.30
5808;DHT22;2930;42.678;23.312;2023-07-13T04:03:35;21.90;84.50
5808;DHT22;2930;42.678;23.312;2023-07-13T04:06:03;21.90;83.20
5808;DHT22;2930;42.678;23.312;2023-07-13T04:08:31;21.90;83.50
5808;DHT22;2930;42.678;23.312;2023-07-13T04:10:58;21.90;83.30
5808;DHT22;2930;42.678;23.312;2023-07-13T04:13:24;21.90;83.50
5808;DHT22;2930;42.678;23.312;2023-07-13T04:15:50;22.00;83.50
5808;DHT22;2930;42.678;23.312;2023-07-13T04:18:16;22.00;83.60
5808;DHT22;2930;42.678;23.312;2023-07-13T04:20:42;22.00;84.70
5808;DHT22;2930;42.678;23.312;2023-07-13T04:23:08;21.90;83.80
5808;DHT22;2930;42.678;23.312;2023-07-13T04:25:33;22.00;83.60
5808;DHT22;2930;42.678;23.312;2023-07-13T04:27:59;22.00;83.90
5808;DHT22;2930;42.678;23.312;2023-07-13T04:30:25;22.00;83.60
5808;DHT22;2930;42.678;23.312;2023-07-13T04:32:52;22.10;83.60
5808;DHT22;2930;42.678;23.312;2023-07-13T04:35:21;22.10;83.60
5808;DHT22;2930;42.678;23.312;2023-07-13T04:37:50;22.20;83.20
5808;DHT22;2930;42.678;23.312;2023-07-13T04:40:19;22.20;83.30
5808;DHT22;2930;42.678;23.312;2023-07-13T04:42:46;22.20;83.10
5808;DHT22;2930;42.678;23.312;2023-07-13T04:45:13;22.30;83.60
5808;DHT22;2930;42.678;23.312;2023-07-13T04:47:39;22.30;83.50
5808;DHT22;2930;42.678;23.312;2023-07-13T04:50:06;22.30;83.30
5808;DHT22;2930;42.678;23.312;2023-07-13T04:52:32;22.40;83.50
5808;DHT22;2930;42.678;23.312;2023-07-13T04:54:59;22.40;83.50
5808;DHT22;2930;42.678;23.312;2023-07-13T04:57:25;22.40;83.70
5808;DHT22;2930;42.678;23.312;2023-07-13T04:59:51;22.40;83.00
5808;DHT22;2930;42.678;23.312;2023-07-13T05:02:17;22.50;83.00
5808;DHT22;2930;42.678;23.312;2023-07-13T05:04:42;22.50;82.90
5808;DHT22;2930;42.678;23.312;2023-07-13T05:07:11;22.60;82.80
5808;DHT22;2930;42.678;23.312;2023-07-13T05:09:36;22.60;82.50
5808;DHT22;2930;42.678;23.312;2023-07-13T05:12:03;22.70;82.60
5808;DHT22;2930;42.678;23.312;2023-07-13T05:14:28;22.80;82.30
5808;DHT22;2930;42.678;23.312;2023-07-13T05:16:54;22.90;82.30
5808;DHT22;2930;42.678;23.312;2023-07-13T05:19:22;22.90;82.20
5808;DHT22;2930;42.678;23.312;2023-07-13T05:21:48;23.00;82.00
5808;DHT22;2930;42.678;23.312;2023-07-13T05:24:13;23.00;81.80
5808;DHT22;2930;42.678;23.312;2023-07-13T05:26:39;23.10;81.80
5808;DHT22;2930;42.678;23.312;2023-07-13T05:29:05;23.10;81.30
5808;DHT22;2930;42.678;23.312;2023-07-13T05:31:31;23.20;81.50
5808;DHT22;2930;42.678;23.312;2023-07-13T05:33:56;23.20;81.90
5808;DHT22;2930;42.678;23.312;2023-07-13T05:36:22;23.30;81.30
5808;DHT22;2930;42.678;23.312;2023-07-13T05:38:48;23.30;81.80
5808;DHT22;2930;42.678;23.312;2023-07-13T05:41:13;23.30;81.00
5808;DHT22;2930;42.678;23.312;2023-07-13T05:43:39;23.30;81.00
5808;DHT22;2930;42.678;23.312;2023-07-13T05:46:04;23.30;81.50
5808;DHT22;2930;42.678;23.312;2023-07-13T05:48:30;23.40;80.80
5808;DHT22;2930;42.678;23.312;2023-07-13T05:50:56;23.40;80.80
5808;DHT22;2930;42.678;23.312;2023-07-13T05:53:21;23.50;80.50
5808;DHT22;2930;42.678;23.312;2023-07-13T05:55:47;23.60;80.40
5808;DHT22;2930;42.678;23.312;2023-07-13T05:58:16;23.70;80.20
5808;DHT22;2930;42.678;23.312;2023-07-13T06:00:42;23.70;80.00
5808;DHT22;2930;42.678;23.312;2023-07-13T06:03:08;23.70;80.30
5808;DHT22;2930;42.678;23.312;2023-07-13T06:05:35;23.70;80.50
5808;DHT22;2930;42.678;23.312;2023-07-13T06:08:02;23.80;80.30
5808;DHT22;2930;42.678;23.312;2023-07-13T06:10:28;23.90;79.70
5808;DHT22;2930;42.678;23.312;2023-07-13T06:12:53;23.90;79.60
5808;DHT22;2930;42.678;23.312;2023-07-13T06:15:19;24.00;79.50
5808;DHT22;2930;42.678;23.312;2023-07-13T06:17:45;24.10;79.20
5808;DHT22;2930;42.678;23.312;2023-07-13T06:20:10;24.20;79.20
5808;DHT22;2930;42.678;23.312;2023-07-13T06:22:36;24.20;79.10
5808;DHT22;2930;42.678;23.312;2023-07-13T06:25:02;24.30;78.80
5808;DHT22;2930;42.678;23.312;2023-07-13T06:27:28;24.40;78.70
5808;DHT22;2930;42.678;23.312;2023-07-13T06:29:54;24.50;78.00
5808;DHT22;2930;42.678;23.312;2023-07-13T06:32:20;24.60;78.20
5808;DHT22;2930;42.678;23.312;2023-07-13T06:34:46;24.60;76.90
5808;DHT22;2930;42.678;23.312;2023-07-13T06:37:11;24.70;77.10
5808;DHT22;2930;42.678;23.312;2023-07-13T06:39:37;24.80;76.90
5808;DHT22;2930;42.678;23.312;2023-07-13T06:42:03;24.90;76.30
5808;DHT22;2930;42.678;23.312;2023-07-13T06:44:30;24.90;76.40
5808;DHT22;2930;42.678;23.312;2023-07-13T06:46:55;25.00;75.90
5808;DHT22;2930;42.678;23.312;2023-07-13T06:49:21;25.10;76.00
5808;DHT22;2930;42.678;23.312;2023-07-13T06:51:46;25.10;76.10
5808;DHT22;2930;42.678;23.312;2023-07-13T06:54:13;25.20;76.10
5808;DHT22;2930;42.678;23.312;2023-07-13T06:56:39;25.30;75.90
5808;DHT22;2930;42.678;23.312;2023-07-13T06:59:05;25.30;75.40
5808;DHT22;2930;42.678;23.312;2023-07-13T07:01:30;25.40;75.20
5808;DHT22;2930;42.678;23.312;2023-07-13T07:03:56;25.50;75.40
5808;DHT22;2930;42.678;23.312;2023-07-13T07:06:22;25.60;75.00
5808;DHT22;2930;42.678;23.312;2023-07-13T07:08:50;25.60;75.30
5808;DHT22;2930;42.678;23.312;2023-07-13T07:11:24;25.70;75.10
5808;DHT22;2930;42.678;23.312;2023-07-13T07:13:50;25.80;75.00
5808;DHT22;2930;42.678;23.312;2023-07-13T07:16:17;25.90;75.20
5808;DHT22;2930;42.678;23.312;2023-07-13T07:18:43;25.90;74.60
5808;DHT22;2930;42.678;23.312;2023-07-13T07:21:09;26.00;74.10
5808;DHT22;2930;42.678;23.312;2023-07-13T07:23:35;26.00;74.40
5808;DHT22;2930;42.678;23.312;2023-07-13T07:26:01;26.00;74.10
5808;DHT22;2930;42.678;23.312;2023-07-13T07:28:27;26.10;73.20
5808;DHT22;2930;42.678;23.312;2023-07-13T07:30:58;26.20;73.30
5808;DHT22;2930;42.678;23.312;2023-07-13T07:33:24;26.30;72.90
5808;DHT22;2930;42.678;23.312;2023-07-13T07:35:50;26.40;72.90
5808;DHT22;2930;42.678;23.312;2023-07-13T07:38:16;26.50;72.70
5808;DHT22;2930;42.678;23.312;2023-07-13T07:40:42;26.60;72.60
5808;DHT22;2930;42.678;23.312;2023-07-13T07:43:09;26.60;73.00
5808;DHT22;2930;42.678;23.312;2023-07-13T07:45:35;26.70;72.60
5808;DHT22;2930;42.678;23.312;2023-07-13T07:48:01;26.80;72.90
5808;DHT22;2930;42.678;23.312;2023-07-13T07:50:27;26.90;72.50
5808;DHT22;2930;42.678;23.312;2023-07-13T07:52:54;27.00;71.90
5808;DHT22;2930;42.678;23.312;2023-07-13T07:55:22;27.10;71.90
5808;DHT22;2930;42.678;23.312;2023-07-13T07:57:48;27.20;71.70
5808;DHT22;2930;42.678;23.312;2023-07-13T08:00:15;27.30;73.30
5808;DHT22;2930;42.678;23.312;2023-07-13T08:02:41;27.40;71.60
5808;DHT22;2930;42.678;23.312;2023-07-13T08:05:08;27.50;71.10
5808;DHT22;2930;42.678;23.312;2023-07-13T08:07:34;27.60;70.30
5808;DHT22;2930;42.678;23.312;2023-07-13T08:09:59;27.60;69.00
5808;DHT22;2930;42.678;23.312;2023-07-13T08:12:25;27.60;70.00
5808;DHT22;2930;42.678;23.312;2023-07-13T08:14:51;27.60;69.10
5808;DHT22;2930;42.678;23.312;2023-07-13T08:17:19;27.80;69.80
5808;DHT22;2930;42.678;23.312;2023-07-13T08:19:45;27.90;69.50
5808;DHT22;2930;42.678;23.312;2023-07-13T08:22:11;28.00;69.00
5808;DHT22;2930;42.678;23.312;2023-07-13T08:24:37;28.10;69.40
5808;DHT22;2930;42.678;23.312;2023-07-13T08:27:02;28.10;69.50
5808;DHT22;2930;42.678;23.312;2023-07-13T08:29:28;28.20;69.80
5808;DHT22;2930;42.678;23.312;2023-07-13T08:31:57;28.30;69.30
5808;DHT22;2930;42.678;23.312;2023-07-13T08:34:23;28.40;69.10
5808;DHT22;2930;42.678;23.312;2023-07-13T08:36:49;28.40;68.30
5808;DHT22;2930;42.678;23.312;2023-07-13T08:39:14;28.40;68.20
5808;DHT22;2930;42.678;23.312;2023-07-13T08:41:40;28.50;68.20
5808;DHT22;2930;42.678;23.312;2023-07-13T08:44:16;28.60;67.50
5808;DHT22;2930;42.678;23.312;2023-07-13T08:46:44;28.70;67.40
5808;DHT22;2930;42.678;23.312;2023-07-13T08:49:15;28.80;68.20
5808;DHT22;2930;42.678;23.312;2023-07-13T08:51:55;28.80;68.30
5808;DHT22;2930;42.678;23.312;2023-07-13T08:54:34;29.00;68.10
5808;DHT22;2930;42.678;23.312;2023-07-13T08:57:13;29.10;67.70
5808;DHT22;2930;42.678;23.312;2023-07-13T08:59:39;29.20;66.90
5808;DHT22;2930;42.678;23.312;2023-07-13T09:05:41;29.40;67.10
5808;DHT22;2930;42.678;23.312;2023-07-13T09:13:59;29.90;66.60
5808;DHT22;2930;42.678;23.312;2023-07-13T09:16:28;30.10;65.70
5808;DHT22;2930;42.678;23.312;2023-07-13T09:18:59;30.20;65.80
5808;DHT22;2930;42.678;23.312;2023-07-13T09:21:31;30.30;64.90
5808;DHT22;2930;42.678;23.312;2023-07-13T09:27:31;30.60;66.00
5808;DHT22;2930;42.678;23.312;2023-07-13T09:30:17;30.80;65.90
5808;DHT22;2930;42.678;23.312;2023-07-13T09:32:51;31.00;65.50
5808;DHT22;2930;42.678;23.312;2023-07-13T09:35:21;31.10;65.50
5808;DHT22;2930;42.678;23.312;2023-07-13T09:37:47;31.30;64.50
5808;DHT22;2930;42.678;23.312;2023-07-13T09:40:39;31.40;63.40
5808;DHT22;2930;42.678;23.312;2023-07-13T09:43:08;31.60;63.90
5808;DHT22;2930;42.678;23.312;2023-07-13T09:45:36;31.70;64.50
5808;DHT22;2930;42.678;23.312;2023-07-13T09:48:10;31.80;64.60
5808;DHT22;2930;42.678;23.312;2023-07-13T09:50:36;32.00;64.40
5808;DHT22;2930;42.678;23.312;2023-07-13T09:53:02;32.20;63.30
5808;DHT22;2930;42.678;23.312;2023-07-13T09:55:35;32.30;63.40
5808;DHT22;2930;42.678;23.312;2023-07-13T09:58:13;32.50;63.70
5808;DHT22;2930;42.678;23.312;2023-07-13T10:00:40;32.60;63.60
5808;DHT22;2930;42.678;23.312;2023-07-13T10:03:17;32.80;63.30
5808;DHT22;2930;42.678;23.312;2023-07-13T10:05:45;32.90;64.40
5808;DHT22;2930;42.678;23.312;2023-07-13T10:08:36;33.00;64.00
5808;DHT22;2930;42.678;23.312;2023-07-13T10:11:23;33.20;63.10
5808;DHT22;2930;42.678;23.312;2023-07-13T10:16:26;33.50;59.30
5808;DHT22;2930;42.678;23.312;2023-07-13T10:18:58;33.70;59.40
5808;DHT22;2930;42.678;23.312;2023-07-13T10:21:30;33.90;59.10
5808;DHT22;2930;42.678;23.312;2023-07-13T10:24:05;34.20;58.50
5808;DHT22;2930;42.678;23.312;2023-07-13T10:26:36;34.40;52.50
5808;DHT22;2930;42.678;23.312;2023-07-13T10:29:09;34.70;50.40
5808;DHT22;2930;42.678;23.312;2023-07-13T10:31:38;34.90;48.90
5808;DHT22;2930;42.678;23.312;2023-07-13T10:34:04;35.20;48.60
5808;DHT22;2930;42.678;23.312;2023-07-13T10:36:39;35.40;49.10
5808;DHT22;2930;42.678;23.312;2023-07-13T10:39:06;35.60;49.80
5808;DHT22;2930;42.678;23.312;2023-07-13T10:41:37;35.90;49.50
5808;DHT22;2930;42.678;23.312;2023-07-13T10:44:04;36.30;47.80
5808;DHT22;2930;42.678;23.312;2023-07-13T10:46:32;36.70;47.10
5808;DHT22;2930;42.678;23.312;2023-07-13T10:49:00;37.30;46.30
5808;DHT22;2930;42.678;23.312;2023-07-13T10:51:27;37.90;46.30
5808;DHT22;2930;42.678;23.312;2023-07-13T10:54:17;38.30;45.90
5808;DHT22;2930;42.678;23.312;2023-07-13T10:56:43;38.60;44.60
5808;DHT22;2930;42.678;23.312;2023-07-13T10:59:16;38.70;44.20
5808;DHT22;2930;42.678;23.312;2023-07-13T11:04:18;38.90;44.30
5808;DHT22;2930;42.678;23.312;2023-07-13T11:06:47;39.10;46.30
5808;DHT22;2930;42.678;23.312;2023-07-13T11:09:38;39.40;44.20
5808;DHT22;2930;42.678;23.312;2023-07-13T11:15:13;39.90;42.90
5808;DHT22;2930;42.678;23.312;2023-07-13T11:17:53;39.90;44.10
5808;DHT22;2930;42.678;23.312;2023-07-13T11:20:31;39.90;44.60
5808;DHT22;2930;42.678;23.312;2023-07-13T11:25:42;40.00;43.70
5808;DHT22;2930;42.678;23.312;2023-07-13T11:30:49;40.50;42.80
5808;DHT22;2930;42.678;23.312;2023-07-13T11:33:19;40.50;43.80
5808;DHT22;2930;42.678;23.312;2023-07-13T11:35:58;40.30;43.40
5808;DHT22;2930;42.678;23.312;2023-07-13T11:40:54;41.00;44.10
5808;DHT22;2930;42.678;23.312;2023-07-13T11:43:21;41.40;42.70
5808;DHT22;2930;42.678;23.312;2023-07-13T11:45:49;41.60;43.70
5808;DHT22;2930;42.678;23.312;2023-07-13T11:48:34;41.90;42.90
5808;DHT22;2930;42.678;23.312;2023-07-13T11:51:04;42.20;42.50
5808;DHT22;2930;42.678;23.312;2023-07-13T11:53:46;42.10;42.90
5808;DHT22;2930;42.678;23.312;2023-07-13T11:56:13;42.20;43.10
5808;DHT22;2930;42.678;23.312;2023-07-13T11:58:39;42.30;42.70
5808;DHT22;2930;42.678;23.312;2023-07-13T12:01:05;42.20;43.10
5808;DHT22;2930;42.678;23.312;2023-07-13T12:03:32;42.10;43.00
5808;DHT22;2930;42.678;23.312;2023-07-13T12:06:02;42.20;42.20
5808;DHT22;2930;42.678;23.312;2023-07-13T12:08:28;42.40;42.40
5808;DHT22;2930;42.678;23.312;2023-07-13T12:11:04;42.30;41.90
5808;DHT22;2930;42.678;23.312;2023-07-13T12:13:38;42.40;41.70
5808;DHT22;2930;42.678;23.312;2023-07-13T12:16:34;42.30;41.50
5808;DHT22;2930;42.678;23.312;2023-07-13T12:19:01;42.50;41.20
5808;DHT22;2930;42.678;23.312;2023-07-13T12:21:36;42.40;41.00
5808;DHT22;2930;42.678;23.312;2023-07-13T12:24:03;42.40;42.10
5808;DHT22;2930;42.678;23.312;2023-07-13T12:26:30;42.30;42.00
5808;DHT22;2930;42.678;23.312;2023-07-13T12:28:59;42.30;41.30
5808;DHT22;2930;42.678;23.312;2023-07-13T12:33:58;42.60;41.90
5808;DHT22;2930;42.678;23.312;2023-07-13T12:36:24;42.80;42.00
5808;DHT22;2930;42.678;23.312;2023-07-13T12:38:50;43.10;41.00
5808;DHT22;2930;42.678;23.312;2023-07-13T12:41:16;43.40;42.30
5808;DHT22;2930;42.678;23.312;2023-07-13T12:43:45;43.60;40.10
5808;DHT22;2930;42.678;23.312;2023-07-13T12:46:23;43.90;41.70
5808;DHT22;2930;42.678;23.312;2023-07-13T12:48:52;43.80;40.80
5808;DHT22;2930;42.678;23.312;2023-07-13T12:51:22;43.40;40.40
5808;DHT22;2930;42.678;23.312;2023-07-13T12:53:50;42.90;40.60
5808;DHT22;2930;42.678;23.312;2023-07-13T12:56:22;42.50;39.90
5808;DHT22;2930;42.678;23.312;2023-07-13T12:58:49;42.10;40.50
5808;DHT22;2930;42.678;23.312;2023-07-13T13:01:21;42.10;41.30
5808;DHT22;2930;42.678;23.312;2023-07-13T13:03:50;42.20;40.30
5808;DHT22;2930;42.678;23.312;2023-07-13T13:06:25;42.50;41.40
5808;DHT22;2930;42.678;23.312;2023-07-13T13:08:54;42.80;41.20
5808;DHT22;2930;42.678;23.312;2023-07-13T13:11:22;42.90;40.40
5808;DHT22;2930;42.678;23.312;2023-07-13T13:13:49;42.90;40.80
5808;DHT22;2930;42.678;23.312;2023-07-13T13:18:46;42.90;40.10
5808;DHT22;2930;42.678;23.312;2023-07-13T13:21:12;43.10;41.10
5808;DHT22;2930;42.678;23.312;2023-07-13T13:23:38;43.10;40.90
5808;DHT22;2930;42.678;23.312;2023-07-13T13:26:08;42.90;40.90
5808;DHT22;2930;42.678;23.312;2023-07-13T13:28:34;42.80;40.50
5808;DHT22;2930;42.678;23.312;2023-07-13T13:31:00;42.70;40.60
5808;DHT22;2930;42.678;23.312;2023-07-13T13:33:26;42.80;40.40
5808;DHT22;2930;42.678;23.312;2023-07-13T13:35:51;42.80;42.20
5808;DHT22;2930;42.678;23.312;2023-07-13T13:38:20;43.10;41.40
5808;DHT22;2930;42.678;23.312;2023-07-13T13:40:49;43.20;39.80
5808;DHT22;2930;42.678;23.312;2023-07-13T13:43:20;43.20;40.40
5808;DHT22;2930;42.678;23.312;2023-07-13T13:45:46;43.30;39.60
5808;DHT22;2930;42.678;23.312;2023-07-13T13:48:18;43.40;41.60
5808;DHT22;2930;42.678;23.312;2023-07-13T13:50:44;43.60;39.10
5808;DHT22;2930;42.678;23.312;2023-07-13T13:53:11;43.50;39.90
5808;DHT22;2930;42.678;23.312;2023-07-13T13:55:38;43.10;40.00
5808;DHT22;2930;42.678;23.312;2023-07-13T13:58:04;43.10;40.70
5808;DHT22;2930;42.678;23.312;2023-07-13T14:00:30;43.00;39.60
5808;DHT22;2930;42.678;23.312;2023-07-13T14:02:56;43.10;40.50
5808;DHT22;2930;42.678;23.312;2023-07-13T14:05:24;43.10;40.30
5808;DHT22;2930;42.678;23.312;2023-07-13T14:07:53;43.10;40.20
5808;DHT22;2930;42.678;23.312;2023-07-13T14:10:20;43.20;40.30
5808;DHT22;2930;42.678;23.312;2023-07-13T14:12:50;43.10;40.30
5808;DHT22;2930;42.678;23.312;2023-07-13T14:15:29;43.00;42.80
5808;DHT22;2930;42.678;23.312;2023-07-13T14:17:58;43.00;41.30
5808;DHT22;2930;42.678;23.312;2023-07-13T14:20:25;42.80;41.30
5808;DHT22;2930;42.678;23.312;2023-07-13T14:22:52;42.70;40.90
5808;DHT22;2930;42.678;23.312;2023-07-13T14:25:19;42.90;42.00
5808;DHT22;2930;42.678;23.312;2023-07-13T14:27:58;43.10;40.60
5808;DHT22;2930;42.678;23.312;2023-07-13T14:30:33;43.10;40.10
5808;DHT22;2930;42.678;23.312;2023-07-13T14:32:58;43.20;41.30
5808;DHT22;2930;42.678;23.312;2023-07-13T14:35:24;43.10;40.80
5808;DHT22;2930;42.678;23.312;2023-07-13T14:37:51;43.00;41.10
5808;DHT22;2930;42.678;23.312;2023-07-13T14:40:21;42.90;42.40
5808;DHT22;2930;42.678;23.312;2023-07-13T14:42:49;42.80;41.40
5808;DHT22;2930;42.678;23.312;2023-07-13T14:45:17;42.50;41.50
5808;DHT22;2930;42.678;23.312;2023-07-13T14:47:43;42.40;42.40
5808;DHT22;2930;42.678;23.312;2023-07-13T14:50:18;42.10;42.00
5808;DHT22;2930;42.678;23.312;2023-07-13T14:52:45;42.00;42.00
5808;DHT22;2930;42.678;23.312;2023-07-13T14:55:15;41.90;43.50
5808;DHT22;2930;42.678;23.312;2023-07-13T14:57:41;42.00;42.80
5808;DHT22;2930;42.678;23.312;2023-07-13T15:00:25;42.10;42.60
5808;DHT22;2930;42.678;23.312;2023-07-13T15:02:53;42.10;42.50
5808;DHT22;2930;42.678;23.312;2023-07-13T15:05:26;42.20;43.20
5808;DHT22;2930;42.678;23.312;2023-07-13T15:07:57;42.20;43.50
5808;DHT22;2930;42.678;23.312;2023-07-13T15:10:29;42.20;42.80
5808;DHT22;2930;42.678;23.312;2023-07-13T15:15:40;42.20;43.10
5808;DHT22;2930;42.678;23.312;2023-07-13T15:18:10;42.00;43.60
5808;DHT22;2930;42.678;23.312;2023-07-13T15:20:36;41.80;43.70
5808;DHT22;2930;42.678;23.312;2023-07-13T15:23:02;41.50;43.20
5808;DHT22;2930;42.678;23.312;2023-07-13T15:25:30;41.20;43.40
5808;DHT22;2930;42.678;23.312;2023-07-13T15:27:57;40.90;43.50
5808;DHT22;2930;42.678;23.312;2023-07-13T15:30:26;40.80;44.60
5808;DHT22;2930;42.678;23.312;2023-07-13T15:32:52;40.80;44.40
5808;DHT22;2930;42.678;23.312;2023-07-13T15:35:25;40.70;44.50
5808;DHT22;2930;42.678;23.312;2023-07-13T15:37:51;40.60;45.00
5808;DHT22;2930;42.678;23.312;2023-07-13T15:40:18;40.60;45.30
5808;DHT22;2930;42.678;23.312;2023-07-13T15:42:45;40.40;45.00
5808;DHT22;2930;42.678;23.312;2023-07-13T15:45:22;40.10;44.90
5808;DHT22;2930;42.678;23.312;2023-07-13T15:47:50;40.00;45.00
5808;DHT22;2930;42.678;23.312;2023-07-13T15:50:19;39.80;45.10
5808;DHT22;2930;42.678;23.312;2023-07-13T15:52:49;39.90;45.50
5808;DHT22;2930;42.678;23.312;2023-07-13T15:55:15;39.80;46.40
5808;DHT22;2930;42.678;23.312;2023-07-13T15:57:47;39.70;45.60
5808;DHT22;2930;42.678;23.312;2023-07-13T16:00:18;39.50;46.20
5808;DHT22;2930;42.678;23.312;2023-07-13T16:02:46;39.40;46.00
5808;DHT22;2930;42.678;23.312;2023-07-13T16:05:12;39.30;46.80
5808;DHT22;2930;42.678;23.312;2023-07-13T16:07:37;39.20;46.00
5808;DHT22;2930;42.678;23.312;2023-07-13T16:10:03;39.00;47.10
5808;DHT22;2930;42.678;23.312;2023-07-13T16:12:29;38.90;47.00
5808;DHT22;2930;42.678;23.312;2023-07-13T16:14:55;38.80;47.50
5808;DHT22;2930;42.678;23.312;2023-07-13T16:17:20;38.70;47.50
5808;DHT22;2930;42.678;23.312;2023-07-13T16:19:46;38.70;47.40
5808;DHT22;2930;42.678;23.312;2023-07-13T16:22:17;38.50;47.80
5808;DHT22;2930;42.678;23.312;2023-07-13T16:24:44;38.40;48.50
5808;DHT22;2930;42.678;23.312;2023-07-13T16:27:11;38.20;47.60